Time;durP1;ratioP1;P1;durP2;ratioP2;P2;SDS_P1;SDS_P2;PMS_P1;PMS_P2;Temp;Humidity;BMP_temperature;BMP_pressure;BME280_temperature;BME280_humidity;BME280_pressure;Samples;Min_cycle;Max_cycle;Signal;HPM_P1;HPM_P2
2021/11/03 00:01:13;;;;;;;3.45;1.60;;;6.10;77.60;;;4.36;84.18;94844.63;4988881;28;20046;-66
2021/11/03 00:03:39;;;;;;;4.78;1.63;;;6.10;77.70;;;4.32;83.38;94828.56;4973032;28;20053;-66
2021/11/03 00:06:05;;;;;;;3.33;1.52;;;6.10;77.60;;;4.35;84.22;94833.41;4972410;28;20036;-66
2021/11/03 00:08:31;;;;;;;3.88;1.73;;;6.20;77.60;;;4.33;83.49;94834.56;4972903;28;20038;-65
2021/11/03 00:10:57;;;;;;;4.15;1.80;;;6.20;77.70;;;4.34;83.67;94836.19;4972622;28;20498;-65
2021/11/03 00:13:24;;;;;;;2.15;1.35;;;6.20;77.70;;;4.30;84.07;94828.75;4975637;28;20045;-65
2021/11/03 00:15:52;;;;;;;3.40;1.60;;;6.10;77.70;;;4.26;84.22;94814.44;4953082;28;20030;-66
2021/11/03 00:18:18;;;;;;;3.03;1.50;;;6.10;77.60;;;4.27;83.47;94816.06;4987744;28;20077;-65
2021/11/03 00:20:43;;;;;;;4.97;1.70;;;6.00;77.40;;;4.20;83.68;94811.78;4988521;28;20058;-66
2021/11/03 00:23:09;;;;;;;4.78;1.85;;;5.90;77.70;;;4.17;84.17;94825.97;4956601;28;20045;-66
2021/11/03 00:25:40;;;;;;;3.47;1.70;;;5.90;77.80;;;4.14;84.11;94821.13;4989644;28;20042;-65
2021/11/03 00:28:08;;;;;;;2.58;1.42;;;6.00;77.80;;;4.13;84.30;94810.91;4973180;28;20023;-66
2021/11/03 00:30:35;;;;;;;3.25;1.70;;;5.90;77.80;;;4.10;84.34;94808.66;4976429;28;20038;-66
2021/11/03 00:33:00;;;;;;;4.55;1.80;;;5.90;77.80;;;4.09;84.61;94813.06;4947240;28;20047;-66
2021/11/03 00:35:26;;;;;;;2.97;1.58;;;5.90;77.90;;;4.08;83.94;94810.63;4990705;28;20080;-66
2021/11/03 00:37:52;;;;;;;2.65;1.67;;;5.90;77.90;;;4.06;83.94;94799.56;4992741;28;20121;-66
2021/11/03 00:40:18;;;;;;;2.83;1.73;;;5.80;77.90;;;4.01;84.47;94789.72;4976483;28;20045;-65
2021/11/03 00:42:43;;;;;;;2.88;1.60;;;5.80;78.00;;;3.98;84.60;94787.47;4976713;28;20058;-65
2021/11/03 00:45:09;;;;;;;2.50;1.40;;;5.70;78.00;;;3.95;83.93;94780.03;4975967;28;20129;-66
2021/11/03 00:47:35;;;;;;;5.65;1.90;;;5.70;78.10;;;3.93;84.06;94771.63;4976159;28;20505;-65
2021/11/03 00:50:01;;;;;;;3.33;1.60;;;5.70;78.00;;;3.91;84.14;94763.19;4975565;28;20042;-66
2021/11/03 00:52:27;;;;;;;3.35;1.65;;;5.70;78.20;;;3.90;84.68;94758.97;5008609;28;20529;-66
2021/11/03 00:54:53;;;;;;;3.75;1.58;;;5.70;78.20;;;3.90;84.21;94758.97;4992301;28;20057;-65
2021/11/03 00:57:18;;;;;;;3.13;1.52;;;5.70;78.20;;;3.88;84.36;94753.16;4992226;28;20065;-66
2021/11/03 00:59:44;;;;;;;2.95;1.55;;;5.70;78.10;;;3.86;84.72;94757.72;4991951;28;20526;-66
2021/11/03 01:02:10;;;;;;;2.80;1.70;;;5.60;78.20;;;3.83;84.62;94756.25;4991396;28;20034;-66
2021/11/03 01:04:35;;;;;;;3.65;1.58;;;5.60;78.40;;;3.80;84.59;94755.81;4975637;28;20458;-65
2021/11/03 01:07:03;;;;;;;3.05;1.45;;;5.60;78.60;;;3.76;85.31;94741.56;4992216;28;20030;-65
2021/11/03 01:09:29;;;;;;;3.17;1.52;;;5.60;78.50;;;3.76;85.38;94749.38;4975881;28;20418;-66
2021/11/03 01:11:54;;;;;;;4.22;1.48;;;5.60;78.60;;;3.77;85.20;94743.19;4991663;28;20042;-65
2021/11/03 01:14:21;;;;;;;3.55;2.10;;;5.60;78.50;;;3.73;84.87;94744.53;4958772;28;20068;-66
2021/11/03 01:16:46;;;;;;;2.55;1.55;;;5.60;78.40;;;3.74;85.43;94740.94;4956597;28;20031;-65
2021/11/03 01:19:12;;;;;;;2.83;1.50;;;5.60;78.30;;;3.73;85.02;94744.53;4988462;28;20090;-66
2021/11/03 01:21:38;;;;;;;2.67;1.35;;;5.60;78.40;;;3.71;85.11;94762.13;5007743;28;20041;-66
2021/11/03 01:24:05;;;;;;;2.95;1.52;;;5.60;78.30;;;3.69;85.19;94764.91;4988022;28;20039;-66
2021/11/03 01:26:31;;;;;;;2.35;1.40;;;5.60;78.50;;;3.65;85.21;94759.25;4989088;28;20526;-65
2021/11/03 01:28:56;;;;;;;3.40;1.70;;;5.50;78.30;;;3.62;84.69;94767.41;4975005;28;20037;-66
2021/11/03 01:31:22;;;;;;;2.03;1.15;;;5.60;78.20;;;3.58;85.27;94755.72;5007346;28;20546;-66
2021/11/03 01:33:49;;;;;;;2.10;1.35;;;5.50;78.10;;;3.59;85.00;94767.75;4991841;28;20027;-66
2021/11/03 01:36:14;;;;;;;2.30;1.30;;;5.50;78.10;;;3.53;84.93;94760.66;4974801;28;20088;-65
2021/11/03 01:38:40;;;;;;;2.80;1.50;;;5.40;78.30;;;3.52;85.29;94753.84;4991637;28;20034;-66
2021/11/03 01:41:06;;;;;;;2.85;1.30;;;5.40;78.30;;;3.47;85.26;94750.19;4989775;28;20419;-66
2021/11/03 01:43:46;;;;;;;1.75;1.20;;;5.30;78.30;;;3.48;85.55;94751.78;4974814;28;20037;-66
2021/11/03 01:46:28;;;;;;;3.30;1.33;;;5.40;78.40;;;3.46;85.68;94749.38;5007130;28;20039;-66
2021/11/03 01:49:05;;;;;;;3.50;1.40;;;5.30;78.50;;;3.43;86.35;94749.72;4991200;28;20066;-66
2021/11/03 01:51:49;;;;;;;2.55;1.38;;;5.30;78.50;;;3.34;86.26;94741.19;5006892;28;20058;-66
2021/11/03 01:54:42;;;;;;;2.78;1.50;;;5.30;78.60;;;3.38;86.54;94741.63;4990357;28;20034;-65
2021/11/03 01:57:11;;;;;;;3.65;1.58;;;5.20;78.60;;;3.30;85.67;94732.13;4990367;28;20450;-65
2021/11/03 01:59:44;;;;;;;3.38;1.17;;;5.20;79.00;;;3.31;86.45;94725.16;4990599;28;20041;-65
2021/11/03 02:02:10;;;;;;;2.92;1.27;;;5.20;79.10;;;3.30;85.97;94726.94;4990199;28;20117;-65
2021/11/03 02:04:36;;;;;;;2.40;1.52;;;5.10;79.20;;;3.28;85.58;94720.31;4974612;28;20076;-65
2021/11/03 02:07:05;;;;;;;2.42;1.30;;;5.20;79.10;;;3.30;85.90;94719.16;4975212;28;20039;-65
2021/11/03 02:09:31;;;;;;;2.08;1.15;;;5.20;79.00;;;3.27;85.77;94713.50;4958648;28;20038;-65
2021/11/03 02:11:56;;;;;;;3.00;1.27;;;5.10;79.10;;;3.25;85.78;94705.09;5002492;28;20031;-66
2021/11/03 02:14:22;;;;;;;2.00;1.33;;;5.20;79.10;;;3.26;85.78;94696.31;4989546;28;21488;-65
2021/11/03 02:16:51;;;;;;;2.60;1.38;;;5.10;79.20;;;3.25;86.33;94684.28;4987292;28;20050;-66
2021/11/03 02:19:31;;;;;;;2.58;1.38;;;5.10;79.20;;;3.21;87.38;94688.25;4988100;28;20042;-65
2021/11/03 02:22:30;;;;;;;1.90;1.05;;;5.20;79.30;;;3.23;87.54;94688.88;4973505;28;20149;-66
2021/11/03 02:25:11;;;;;;;2.03;0.93;;;5.10;79.40;;;3.22;87.10;94682.06;4981489;28;20030;-65
2021/11/03 02:27:39;;;;;;;1.50;0.90;;;5.10;79.40;;;3.21;86.36;94683.03;4958204;28;20034;-65
2021/11/03 02:30:07;;;;;;;2.67;1.00;;;5.20;79.40;;;3.22;86.46;94684.66;4991204;23;20073;-66
2021/11/03 02:32:32;;;;;;;1.70;1.08;;;5.10;79.20;;;3.19;86.53;94680.63;4950439;28;20050;-67
2021/11/03 02:34:58;;;;;;;2.03;0.90;;;5.10;79.00;;;3.18;86.26;94680.81;4989979;28;20069;-66
2021/11/03 02:37:27;;;;;;;1.58;0.98;;;5.10;79.00;;;3.17;86.60;94676.56;4989947;28;20038;-65
2021/11/03 02:40:07;;;;;;;2.38;1.30;;;5.10;79.10;;;3.17;87.13;94676.56;4990982;28;20061;-66
2021/11/03 02:42:36;;;;;;;2.55;1.00;;;5.10;79.20;;;3.16;86.71;94672.34;4973212;28;20050;-66
2021/11/03 02:45:07;;;;;;;2.35;1.30;;;5.10;79.20;;;3.13;86.82;94659.72;4942300;28;20035;-67
2021/11/03 02:47:32;;;;;;;2.47;1.40;;;5.00;79.30;;;3.12;86.24;94658.13;4958403;28;20048;-67
2021/11/03 02:49:58;;;;;;;2.10;1.30;;;5.00;79.40;;;3.10;86.51;94658.28;4973004;28;20525;-65
2021/11/03 02:52:25;;;;;;;2.20;1.33;;;5.00;79.60;;;3.09;86.56;94648.91;4953945;28;20227;-65
2021/11/03 02:54:51;;;;;;;3.10;1.30;;;5.00;79.70;;;3.07;86.83;94643.06;4940271;28;20035;-67
2021/11/03 02:57:17;;;;;;;4.53;1.60;;;5.00;79.60;;;3.04;86.70;94633.03;4979898;28;20092;-66
2021/11/03 02:59:43;;;;;;;2.20;1.50;;;4.90;79.90;;;3.04;87.13;94635.66;4957424;28;20085;-65
2021/11/03 03:02:09;;;;;;;2.10;1.50;;;5.00;80.20;;;3.02;87.17;94622.84;4988233;28;20068;-65
2021/11/03 03:04:46;;;;;;;2.65;1.80;;;4.90;80.20;;;3.01;87.86;94621.22;4973385;28;20042;-66
2021/11/03 03:07:13;;;;;;;2.45;1.63;;;4.90;80.30;;;2.98;87.62;94616.38;4974463;28;20041;-66
2021/11/03 03:09:39;;;;;;;3.25;1.88;;;4.90;80.50;;;2.96;87.80;94618.38;4957045;28;20042;-66
2021/11/03 03:12:06;;;;;;;3.38;1.52;;;4.90;80.80;;;2.98;88.04;94611.19;4956473;28;20060;-67
2021/11/03 03:14:36;;;;;;;3.45;1.90;;;4.90;80.50;;;2.99;88.23;94601.63;4957763;28;20110;-66
2021/11/03 03:17:03;;;;;;;2.50;1.67;;;5.00;80.70;;;2.99;88.12;94597.22;4974011;28;20026;-65
2021/11/03 03:19:29;;;;;;;4.72;1.70;;;4.90;81.10;;;2.98;88.00;94595.63;4972806;28;20034;-66
2021/11/03 03:21:55;;;;;;;2.60;1.98;;;4.90;81.10;;;2.97;88.20;94583.63;4989356;28;20121;-67
2021/11/03 03:24:20;;;;;;;2.90;2.10;;;4.90;81.00;;;2.98;88.67;94569.66;4972625;28;20056;-67
2021/11/03 03:26:47;;;;;;;2.78;2.22;;;4.90;81.10;;;2.98;88.43;94574.84;4941068;28;20038;-66
2021/11/03 03:29:12;;;;;;;3.72;2.50;;;4.90;81.20;;;2.99;88.25;94599.00;4988401;28;20042;-66
2021/11/03 03:31:38;;;;;;;3.53;2.42;;;4.90;81.10;;;3.01;89.02;94604.84;4938181;28;20108;-66
2021/11/03 03:34:08;;;;;;;4.05;2.40;;;4.90;81.20;;;2.99;89.28;94607.63;4950646;28;20037;-64
2021/11/03 03:36:34;;;;;;;5.72;2.65;;;4.90;81.40;;;2.99;88.51;94610.22;4970544;28;20611;-66
2021/11/03 03:39:00;;;;;;;4.13;2.20;;;4.90;81.30;;;3.02;88.79;94622.84;4972147;28;20377;-66
2021/11/03 03:41:27;;;;;;;3.60;2.40;;;5.00;81.20;;;3.02;88.56;94633.22;4956746;28;20061;-66
2021/11/03 03:43:53;;;;;;;4.63;2.65;;;5.00;81.10;;;3.04;88.76;94636.44;4957027;28;20026;-67
2021/11/03 03:46:19;;;;;;;9.20;6.57;;;5.00;81.00;;;3.03;88.90;94637.44;4972552;28;20038;-66
2021/11/03 03:48:45;;;;;;;11.52;8.38;;;5.00;80.90;;;3.02;88.96;94624.63;4972989;28;20509;-65
2021/11/03 03:51:11;;;;;;;9.98;6.63;;;5.00;81.00;;;2.99;88.94;94620.59;4952896;28;20045;-67
2021/11/03 03:53:37;;;;;;;3.70;2.55;;;4.90;80.50;;;2.96;88.44;94617.56;4971566;28;20498;-67
2021/11/03 03:56:03;;;;;;;3.38;2.40;;;4.90;80.30;;;2.90;88.38;94613.06;5004779;28;20030;-66
2021/11/03 03:58:29;;;;;;;3.00;2.28;;;4.80;80.30;;;2.84;88.17;94604.19;4972579;28;20387;-66
2021/11/03 04:00:55;;;;;;;3.35;2.35;;;4.70;80.20;;;2.79;88.18;94601.31;4940279;28;20034;-66
2021/11/03 04:03:20;;;;;;;3.90;2.53;;;4.60;80.30;;;2.75;88.10;94602.69;4987815;28;20512;-66
2021/11/03 04:05:46;;;;;;;2.70;2.30;;;4.60;80.50;;;2.70;88.41;94603.19;4937150;28;20463;-66
2021/11/03 04:08:13;;;;;;;3.22;2.65;;;4.60;80.30;;;2.70;88.49;94610.16;4988185;28;20533;-66
2021/11/03 04:10:39;;;;;;;4.20;2.40;;;4.60;80.20;;;2.71;88.12;94611.78;4988396;28;20034;-66
2021/11/03 04:13:04;;;;;;;4.55;2.83;;;4.60;80.40;;;2.69;88.36;94611.16;4956620;28;20039;-66
2021/11/03 04:15:31;;;;;;;4.13;2.67;;;4.60;80.50;;;2.69;88.55;94611.16;4956592;28;20076;-66
2021/11/03 04:17:57;;;;;;;3.95;2.92;;;4.60;80.80;;;2.67;88.93;94606.13;4972475;28;20045;-67
2021/11/03 04:20:22;;;;;;;4.05;2.85;;;4.60;80.90;;;2.70;88.39;94607.56;4971520;28;20038;-67
2021/11/03 04:22:48;;;;;;;4.05;2.83;;;4.60;80.80;;;2.68;88.67;94597.38;4956247;28;20045;-68
2021/11/03 04:25:14;;;;;;;3.65;2.83;;;4.70;80.40;;;2.66;88.69;94601.13;4953247;28;20035;-67
2021/11/03 04:27:41;;;;;;;4.60;3.17;;;4.60;80.70;;;2.65;88.97;94594.31;4945835;28;20501;-66
2021/11/03 04:30:07;;;;;;;3.83;3.03;;;4.60;81.10;;;2.66;88.91;94595.94;4978363;28;20138;-65
2021/11/03 04:32:33;;;;;;;4.45;2.95;;;4.70;81.30;;;2.64;88.84;94587.50;4988052;28;20418;-66
2021/11/03 04:34:59;;;;;;;5.28;3.30;;;4.60;81.10;;;2.63;89.10;94586.72;4972424;28;20121;-67
2021/11/03 04:37:25;;;;;;;5.40;3.47;;;4.60;81.10;;;2.61;89.00;94577.50;4988664;28;20034;-67
2021/11/03 04:39:50;;;;;;;4.40;3.40;;;4.60;81.10;;;2.61;88.98;94577.50;4988364;28;20046;-67
2021/11/03 04:42:16;;;;;;;4.50;3.30;;;4.60;81.10;;;2.60;89.18;94575.88;4987260;28;20092;-65
2021/11/03 04:44:42;;;;;;;6.38;3.88;;;4.60;81.00;;;2.59;89.33;94579.47;4972262;28;20046;-66
2021/11/03 04:47:08;;;;;;;4.30;3.30;;;4.60;81.00;;;2.60;89.27;94592.25;5004493;28;20034;-66
2021/11/03 04:49:33;;;;;;;4.63;3.42;;;4.60;81.00;;;2.58;89.18;94577.84;4955894;28;20061;-65
2021/11/03 04:51:59;;;;;;;4.45;3.20;;;4.60;80.70;;;2.56;89.10;94582.41;4971955;28;20570;-66
2021/11/03 04:54:25;;;;;;;4.20;3.05;;;4.60;80.60;;;2.53;88.64;94585.38;4989134;28;20066;-67
2021/11/03 04:56:51;;;;;;;5.28;2.88;;;4.50;80.00;;;2.51;88.39;94579.56;4955981;28;20031;-65
2021/11/03 04:59:17;;;;;;;6.03;3.72;;;4.50;80.00;;;2.49;88.74;94573.69;4968297;28;20030;-66
2021/11/03 05:01:43;;;;;;;7.07;3.45;;;4.50;80.30;;;2.46;89.00;94567.88;4972030;28;20069;-68
2021/11/03 05:04:09;;;;;;;4.35;3.42;;;4.40;80.70;;;2.41;88.90;94557.22;4971380;28;20089;-67
2021/11/03 05:06:37;;;;;;;4.30;3.22;;;4.40;80.80;;;2.41;89.22;94559.03;4970041;28;20758;-67
2021/11/03 05:09:06;;;;;;;5.35;3.40;;;4.30;81.10;;;2.37;89.63;94558.56;4986953;28;20499;-66
2021/11/03 05:11:32;;;;;;;4.72;3.22;;;4.30;81.20;;;2.39;89.56;94555.81;4970990;28;20441;-66
2021/11/03 05:13:57;;;;;;;4.25;3.08;;;4.30;81.30;;;2.39;89.51;94551.41;4971126;28;20035;-67
2021/11/03 05:16:24;;;;;;;4.15;3.22;;;4.40;81.40;;;2.39;89.49;94558.41;4992002;28;20706;-67
2021/11/03 05:18:50;;;;;;;5.07;3.15;;;4.40;81.30;;;2.40;89.38;94562.59;4985331;28;20026;-67
2021/11/03 05:21:16;;;;;;;14.73;10.38;;;4.40;81.00;;;2.37;88.90;94566.38;4991263;28;20026;-67
2021/11/03 05:23:41;;;;;;;7.80;5.43;;;4.40;80.90;;;2.36;89.05;94559.56;4975095;28;20124;-66
2021/11/03 05:26:07;;;;;;;19.33;12.63;;;4.40;80.90;;;2.36;88.80;94558.75;4974537;28;20041;-67
2021/11/03 05:28:34;;;;;;;6.57;5.13;;;4.40;80.70;;;2.34;88.65;94571.91;4974259;28;20140;-66
2021/11/03 05:31:00;;;;;;;5.40;3.88;;;4.30;80.60;;;2.34;88.85;94565.91;4974095;28;20022;-67
2021/11/03 05:33:26;;;;;;;5.15;3.92;;;4.30;80.50;;;2.31;88.54;94567.06;5006683;28;20070;-67
2021/11/03 05:35:52;;;;;;;4.68;3.72;;;4.30;80.40;;;2.27;88.52;94560.63;4974977;28;20030;-66
2021/11/03 05:38:18;;;;;;;4.78;3.38;;;4.30;80.30;;;2.22;88.23;94562.91;4990251;28;20050;-67
2021/11/03 05:40:44;;;;;;;4.78;3.33;;;4.20;80.20;;;2.21;88.83;94561.31;4974595;28;20041;-67
2021/11/03 05:43:09;;;;;;;5.63;3.70;;;4.20;80.30;;;2.19;88.95;94552.91;4942714;28;20034;-67
2021/11/03 05:45:35;;;;;;;5.43;3.13;;;4.20;80.30;;;2.18;88.83;94561.66;4992127;28;20070;-66
2021/11/03 05:48:01;;;;;;;5.47;3.05;;;4.10;80.40;;;2.15;88.55;94552.44;4990644;28;20042;-67
2021/11/03 05:50:32;;;;;;;6.40;3.80;;;4.10;80.40;;;2.12;88.60;94547.63;4957935;28;20498;-66
2021/11/03 05:52:58;;;;;;;4.55;3.65;;;4.10;80.50;;;2.10;88.86;94543.59;4974498;28;20422;-67
2021/11/03 05:55:24;;;;;;;7.95;4.07;;;4.10;80.80;;;2.09;89.62;94549.75;4990463;28;20041;-66
2021/11/03 05:57:50;;;;;;;8.15;3.85;;;4.10;81.40;;;2.09;89.54;94552.34;4974609;28;20049;-67
2021/11/03 06:00:34;;;;;;;5.85;3.88;;;4.10;81.60;;;2.10;91.39;94543.59;4989600;28;20066;-69
2021/11/03 06:03:01;;;;;;;7.07;4.22;;;4.10;81.90;;;2.10;90.06;94538.41;4974957;28;20026;-68
2021/11/03 06:05:28;;;;;;;44.30;28.65;;;4.10;82.00;;;2.12;89.96;94533.84;4974263;28;20391;-67
2021/11/03 06:08:05;;;;;;;30.17;17.98;;;4.10;81.90;;;2.17;90.99;94531.53;4942225;28;20125;-67
2021/11/03 06:10:39;;;;;;;14.90;10.88;;;4.20;82.00;;;2.18;90.82;94530.53;5005225;28;20034;-67
2021/11/03 06:13:05;;;;;;;7.57;5.18;;;4.30;82.10;;;2.23;90.74;94543.78;4959120;28;20047;-65
2021/11/03 06:15:32;;;;;;;10.35;6.65;;;4.30;82.10;;;2.28;90.83;94546.69;4974426;28;20506;-66
2021/11/03 06:17:59;;;;;;;8.32;5.57;;;4.40;82.10;;;2.31;90.66;94546.31;4972127;28;20051;-66
2021/11/03 06:20:24;;;;;;;9.10;5.60;;;4.40;82.00;;;2.36;90.71;94541.41;5002341;28;20509;-73
2021/11/03 06:22:50;;;;;;;23.00;15.70;;;4.50;82.20;;;2.41;90.79;94540.88;5007294;28;20050;-71
2021/11/03 06:25:16;;;;;;;31.02;21.33;;;4.50;81.60;;;2.43;90.90;94542.28;4977220;28;20035;-71
2021/11/03 06:27:43;;;;;;;18.60;10.73;;;4.50;81.40;;;2.46;90.50;94536.75;4954044;28;20035;-71
2021/11/03 06:30:11;;;;;;;16.27;10.27;;;4.60;81.40;;;2.51;90.76;94535.44;5002941;28;20062;-71
2021/11/03 06:32:36;;;;;;;21.90;14.75;;;4.60;81.30;;;2.54;90.73;94535.06;4986496;28;20046;-68
2021/11/03 06:35:06;;;;;;;7.85;5.20;;;4.60;81.40;;;2.54;91.30;94529.88;4988904;28;20037;-72
2021/11/03 06:37:32;;;;;;;6.60;4.60;;;4.60;81.30;;;2.55;90.52;94521.91;4989400;28;20045;-72
2021/11/03 06:39:57;;;;;;;7.28;4.35;;;4.70;81.20;;;2.58;90.76;94521.56;4989072;28;20121;-72
2021/11/03 06:42:23;;;;;;;6.80;4.05;;;4.70;81.00;;;2.62;90.39;94519.41;4972110;28;20042;-71
2021/11/03 06:44:49;;;;;;;5.28;3.60;;;4.70;80.90;;;2.66;90.52;94523.25;4990107;28;20085;-68
2021/11/03 06:47:17;;;;;;;5.25;3.75;;;4.80;80.80;;;2.68;90.30;94526.47;4990023;28;20125;-72
2021/11/03 06:49:43;;;;;;;5.22;3.90;;;4.80;80.70;;;2.70;90.50;94522.72;4955752;28;20034;-68
2021/11/03 06:52:10;;;;;;;5.97;4.25;;;4.80;80.60;;;2.71;90.86;94528.69;4987742;28;20038;-68
2021/11/03 06:54:35;;;;;;;6.50;3.97;;;4.90;81.10;;;2.77;91.09;94525.41;4972483;28;20041;-71
2021/11/03 06:57:03;;;;;;;6.05;4.28;;;4.90;81.20;;;2.80;90.79;94522.44;4972238;28;20446;-70
2021/11/03 06:59:28;;;;;;;8.40;3.95;;;5.00;81.20;;;2.86;91.19;94524.31;4970108;28;20039;-65
2021/11/03 07:01:54;;;;;;;7.25;3.97;;;5.00;81.10;;;2.89;91.17;94518.78;4986110;28;20168;-67
2021/11/03 07:04:20;;;;;;;7.30;4.22;;;5.00;81.40;;;2.91;91.47;94510.78;5000515;28;20042;-68
2021/11/03 07:06:46;;;;;;;7.63;4.40;;;5.00;81.40;;;2.92;91.39;94502.81;4971447;28;20145;-70
2021/11/03 07:09:12;;;;;;;7.57;3.90;;;5.10;81.50;;;2.97;91.07;94516.09;4988135;28;20031;-70
2021/11/03 07:11:37;;;;;;;10.02;6.05;;;5.10;81.60;;;3.04;91.92;94516.97;5004992;28;20030;-68
2021/11/03 07:14:03;;;;;;;22.08;14.60;;;5.20;82.10;;;3.11;91.83;94511.84;4972287;28;20034;-71
2021/11/03 07:16:29;;;;;;;9.02;5.63;;;5.20;82.00;;;3.17;91.80;94502.50;5004700;28;20115;-71
2021/11/03 07:18:55;;;;;;;7.20;3.97;;;5.30;81.10;;;3.19;91.61;94503.16;4988335;28;20030;-69
2021/11/03 07:21:20;;;;;;;5.95;3.72;;;5.30;81.10;;;3.21;91.20;94496.00;4971782;28;20042;-70
2021/11/03 07:23:46;;;;;;;5.15;3.63;;;5.30;80.80;;;3.24;91.38;94495.63;4989239;28;20031;-67
2021/11/03 07:26:13;;;;;;;5.65;3.55;;;5.30;80.70;;;3.27;91.31;94497.84;4972184;28;20031;-67
2021/11/03 07:28:39;;;;;;;6.53;3.50;;;5.40;80.70;;;3.27;91.10;94492.66;4988046;28;20045;-65
2021/11/03 07:31:05;;;;;;;6.47;3.90;;;5.40;80.60;;;3.32;91.26;94487.69;4987101;28;20031;-68
2021/11/03 07:33:31;;;;;;;6.43;3.30;;;5.40;80.60;;;3.30;90.79;94480.09;4988345;28;20050;-69
2021/11/03 07:35:57;;;;;;;5.15;3.35;;;5.40;80.70;;;3.32;91.02;94480.72;4988753;28;20038;-71
2021/11/03 07:38:23;;;;;;;6.03;3.63;;;5.40;80.70;;;3.35;91.16;94471.75;4970419;28;20039;-72
2021/11/03 07:40:52;;;;;;;4.95;3.45;;;5.40;80.80;;;3.38;90.91;94466.16;4987981;28;20144;-72
2021/11/03 07:43:19;;;;;;;6.20;3.40;;;5.40;80.70;;;3.38;90.85;94460.97;4955366;28;20327;-67
2021/11/03 07:45:47;;;;;;;5.10;3.42;;;5.40;80.80;;;3.42;91.14;94451.84;4987315;28;20507;-66
2021/11/03 07:48:12;;;;;;;4.43;3.00;;;5.60;80.60;;;3.44;91.29;94451.66;4986011;28;20069;-71
2021/11/03 07:50:49;;;;;;;3.75;2.97;;;5.60;80.60;;;3.51;91.41;94450.72;4970602;28;20046;-69
2021/11/03 07:53:15;;;;;;;5.05;3.30;;;5.60;80.50;;;3.58;90.96;94445.56;4970852;28;20038;-65
2021/11/03 07:55:46;;;;;;;5.60;3.45;;;5.70;80.20;;;3.63;90.92;94462.25;4988550;28;20042;-64
2021/11/03 07:58:17;;;;;;;4.15;3.38;;;5.80;79.90;;;3.69;91.05;94466.69;4970475;28;20038;-64
2021/11/03 08:00:43;;;;;;;4.47;3.50;;;5.90;79.40;;;3.77;91.01;94477.94;5003827;28;20054;-65
2021/11/03 08:03:08;;;;;;;5.60;4.38;;;6.10;79.50;;;3.84;90.59;94473.59;4972078;28;20498;-65
2021/11/03 08:05:35;;;;;;;12.00;9.57;;;6.10;79.20;;;3.97;91.02;94458.09;4971941;28;20117;-69
2021/11/03 08:08:07;;;;;;;10.02;6.78;;;6.40;79.80;;;4.10;90.90;94455.63;4954692;28;20469;-66
2021/11/03 08:10:33;;;;;;;5.28;3.90;;;6.50;78.70;;;4.19;89.81;94457.06;4955269;28;20081;-67
2021/11/03 08:12:59;;;;;;;4.18;3.05;;;6.60;77.70;;;4.27;89.96;94454.31;4988371;28;20069;-64
2021/11/03 08:15:25;;;;;;;5.65;3.10;;;6.70;77.60;;;4.39;89.77;94448.59;4989287;28;20330;-67
2021/11/03 08:17:51;;;;;;;4.60;3.20;;;6.90;77.10;;;4.50;90.00;94455.84;4988163;28;20526;-70
2021/11/03 08:20:21;;;;;;;3.70;2.80;;;7.10;76.90;;;4.61;89.66;94468.34;4970445;28;20545;-68
2021/11/03 08:22:47;;;;;;;6.87;3.10;;;7.20;76.20;;;4.69;89.44;94473.38;4970446;28;20120;-66
2021/11/03 08:25:13;;;;;;;4.25;3.13;;;7.30;75.50;;;4.83;88.86;94472.47;5004419;28;20498;-67
2021/11/03 08:27:40;;;;;;;7.50;3.00;;;7.50;75.40;;;5.01;88.34;94468.53;4987758;28;20053;-68
2021/11/03 08:30:08;;;;;;;4.35;3.20;;;7.70;74.80;;;5.13;88.57;94465.16;4986906;28;20041;-67
2021/11/03 08:32:38;;;;;;;5.18;3.40;;;7.90;73.50;;;5.24;87.77;94458.59;4987636;28;20542;-67
2021/11/03 08:35:07;;;;;;;4.30;2.77;;;8.10;73.30;;;5.40;87.86;94458.22;4956667;28;20035;-68
2021/11/03 08:37:34;;;;;;;5.50;3.25;;;8.20;73.40;;;5.55;87.21;94445.03;4955696;28;20819;-67
2021/11/03 08:40:00;;;;;;;4.95;3.05;;;8.40;73.10;;;5.67;86.93;94440.84;4971453;28;20030;-67
2021/11/03 08:42:27;;;;;;;4.65;2.88;;;8.50;72.50;;;5.81;86.18;94446.84;4971224;28;20770;-68
2021/11/03 08:44:54;;;;;;;5.28;2.92;;;8.70;71.30;;;5.94;86.14;94446.91;4972254;28;20133;-68
2021/11/03 08:47:22;;;;;;;5.20;3.08;;;8.90;70.90;;;6.11;86.07;94445.50;4986236;28;20058;-69
2021/11/03 08:49:48;;;;;;;7.20;3.20;;;9.00;70.10;;;6.23;84.80;94434.44;4986348;28;20140;-70
2021/11/03 08:52:14;;;;;;;4.65;2.85;;;9.10;69.80;;;6.31;84.88;94447.28;4990506;28;20521;-67
2021/11/03 08:54:40;;;;;;;3.95;2.97;;;9.10;69.40;;;6.42;84.34;94437.03;4991241;28;20038;-68
2021/11/03 08:57:08;;;;;;;4.82;3.05;;;9.20;69.60;;;6.51;84.03;94450.66;4991481;28;20427;-69
2021/11/03 08:59:34;;;;;;;5.28;2.97;;;9.20;69.00;;;6.52;82.52;94447.03;4958879;28;20038;-68
2021/11/03 09:02:00;;;;;;;3.35;2.70;;;9.10;68.90;;;6.52;82.69;94447.03;4991198;28;20049;-65
2021/11/03 09:04:25;;;;;;;7.05;2.95;;;8.90;69.00;;;6.57;82.20;94447.25;5007439;28;20541;-71
2021/11/03 09:06:51;;;;;;;6.30;3.03;;;9.10;69.20;;;6.59;81.54;94441.81;4991302;28;20116;-70
2021/11/03 09:09:17;;;;;;;4.60;2.95;;;9.10;69.00;;;6.62;82.13;94436.97;4990957;28;20039;-73
2021/11/03 09:11:42;;;;;;;5.40;3.80;;;9.10;68.90;;;6.67;81.78;94439.78;4975522;28;20133;-71
2021/11/03 09:14:08;;;;;;;8.13;5.78;;;9.30;68.90;;;6.74;81.81;94437.94;4991750;28;20045;-70
2021/11/03 09:16:34;;;;;;;10.25;8.48;;;9.40;69.00;;;6.84;82.27;94424.47;4991330;28;20037;-70
2021/11/03 09:19:00;;;;;;;4.35;3.60;;;9.50;69.40;;;6.88;81.61;94414.38;4958575;28;20040;-70
2021/11/03 09:21:26;;;;;;;5.68;3.22;;;9.40;68.70;;;6.92;81.37;94411.16;4989101;28;20407;-67
2021/11/03 09:23:52;;;;;;;6.18;2.70;;;9.50;68.40;;;6.94;81.46;94414.34;4990262;28;20030;-68
2021/11/03 09:26:19;;;;;;;6.75;3.10;;;9.60;68.50;;;6.97;80.98;94413.13;4974464;28;20062;-69
2021/11/03 09:28:45;;;;;;;4.15;3.00;;;9.50;68.70;;;7.02;81.44;94395.84;4990050;28;20113;-69
2021/11/03 09:31:11;;;;;;;5.00;2.78;;;9.60;68.90;;;7.06;81.23;94385.75;4974485;28;20071;-71
2021/11/03 09:33:37;;;;;;;4.25;2.70;;;9.60;68.90;;;7.05;81.38;94381.53;4958815;28;20038;-68
2021/11/03 09:36:13;;;;;;;5.10;2.88;;;9.60;68.90;;;7.09;80.33;94390.56;4974733;28;20049;-70
2021/11/03 09:38:39;;;;;;;4.55;2.80;;;9.60;68.90;;;7.14;80.80;94387.31;4960044;28;20034;-69
2021/11/03 09:41:24;;;;;;;5.85;2.88;;;9.70;68.40;;;7.22;79.94;94374.00;4975248;28;20054;-68
2021/11/03 09:44:12;;;;;;;5.53;2.78;;;9.80;68.40;;;7.27;80.16;94371.56;4991213;28;20104;-66
2021/11/03 09:46:42;;;;;;;5.25;3.13;;;9.80;68.00;;;7.31;80.74;94383.22;4978401;23;20038;-67
2021/11/03 09:49:17;;;;;;;4.15;2.80;;;9.90;68.10;;;7.36;79.72;94386.78;4964737;28;20046;-67
2021/11/03 09:52:00;;;;;;;4.00;2.75;;;9.90;68.20;;;7.38;80.46;94384.75;4971417;28;20606;-66
2021/11/03 09:54:30;;;;;;;6.15;2.47;;;9.90;68.60;;;7.42;79.86;94379.09;4926457;28;20522;-67
2021/11/03 09:57:14;;;;;;;4.72;2.55;;;9.90;68.20;;;7.48;79.73;94378.28;4986771;28;20470;-66
2021/11/03 10:00:22;;;;;;;5.50;2.90;;;10.00;68.30;;;7.53;79.14;94366.16;4957011;28;20127;-67
2021/11/03 10:03:21;;;;;;;4.97;2.70;;;10.00;68.40;;;7.58;79.99;94357.66;4989556;28;20031;-73
2021/11/03 10:06:22;;;;;;;8.23;2.95;;;10.00;68.80;;;7.59;79.43;94361.88;4969535;28;20038;-68
2021/11/03 10:08:49;;;;;;;12.75;3.60;;;10.00;68.60;;;7.59;80.36;94359.28;4957593;28;20384;-66
2021/11/03 10:11:25;;;;;;;9.50;3.22;;;9.90;68.90;;;7.63;79.79;94350.78;4967717;28;20515;-72
2021/11/03 10:13:52;;;;;;;5.78;3.17;;;10.00;69.10;;;7.67;80.12;94351.16;4986219;28;20043;-67
2021/11/03 10:16:17;;;;;;;9.02;5.50;;;10.00;69.60;;;7.72;80.58;94353.94;4961351;28;20034;-66
2021/11/03 10:19:05;;;;;;;17.52;12.32;;;10.10;69.60;;;7.80;80.65;94358.91;4989099;28;20116;-71
2021/11/03 10:21:30;;;;;;;10.05;4.93;;;10.20;70.00;;;7.84;80.09;94356.66;4998100;28;20061;-71
2021/11/03 10:24:11;;;;;;;7.35;3.53;;;10.20;69.30;;;7.84;80.10;94352.22;4972493;28;20574;-70
2021/11/03 10:27:11;;;;;;;5.20;3.30;;;10.20;69.00;;;7.82;78.99;94349.00;4941458;28;20026;-68
2021/11/03 10:29:37;;;;;;;9.70;2.38;;;10.10;68.70;;;7.81;79.90;94344.81;4970117;28;20135;-68
2021/11/03 10:32:08;;;;;;;5.40;2.70;;;10.10;68.80;;;7.81;79.12;94336.94;4983847;28;20039;-77
2021/11/03 10:34:34;;;;;;;5.07;3.10;;;10.10;68.80;;;7.79;79.18;94341.59;4973556;28;20039;-76
2021/11/03 10:37:22;;;;;;;15.65;11.00;;;10.10;69.10;;;7.84;80.46;94338.34;4965158;28;20035;-69